createdAt,value
2023-01-09T00:03:14.410Z,5.57
2023-01-09T00:08:39.012Z,5.54
2023-01-09T00:14:03.455Z,5.52
2023-01-09T00:19:25.298Z,5.55
2023-01-09T00:24:47.331Z,5.64
2023-01-09T00:30:10.420Z,5.58
2023-01-09T00:35:32.171Z,5.44
2023-01-09T00:40:55.377Z,5.40
2023-01-09T00:46:19.412Z,5.37
2023-01-09T00:51:42.136Z,5.39
2023-01-09T00:57:04.000Z,5.43
2023-01-09T01:02:26.388Z,5.42
2023-01-09T01:07:48.261Z,5.42
2023-01-09T01:13:13.221Z,5.53
2023-01-09T01:18:35.078Z,5.57
2023-01-09T01:23:56.860Z,5.61
2023-01-09T01:29:18.840Z,5.70
2023-01-09T01:34:41.021Z,5.73
2023-01-09T01:40:06.842Z,5.75
2023-01-09T01:45:30.598Z,5.70
2023-01-09T01:51:03.197Z,5.63
2023-01-09T01:56:32.723Z,5.65
2023-01-09T02:01:58.721Z,5.67
2023-01-09T02:07:20.998Z,5.71
2023-01-09T02:12:42.823Z,5.65
2023-01-09T02:18:18.604Z,5.57
2023-01-09T02:23:55.529Z,5.44
2023-01-09T02:29:41.865Z,5.52
2023-01-09T02:35:29.948Z,5.57
2023-01-09T02:41:02.444Z,5.50
2023-01-09T02:46:24.083Z,5.48
2023-01-09T02:51:57.383Z,5.38
2023-01-09T02:57:30.620Z,5.29
2023-01-09T03:03:05.640Z,5.16
2023-01-09T03:08:37.036Z,5.15
2023-01-09T03:14:04.553Z,5.16
2023-01-09T03:19:30.499Z,5.14
2023-01-09T03:24:54.518Z,5.13
2023-01-09T03:30:16.737Z,5.13
2023-01-09T03:35:38.466Z,5.17
2023-01-09T03:41:01.114Z,5.11
2023-01-09T03:46:22.649Z,4.86
2023-01-09T03:51:44.727Z,4.61
2023-01-09T03:57:06.762Z,4.59
2023-01-09T04:02:28.736Z,4.47
2023-01-09T04:07:50.285Z,4.35
2023-01-09T04:13:13.467Z,4.26
2023-01-09T04:18:35.259Z,4.15
2023-01-09T04:23:57.146Z,4.01
2023-01-09T04:29:19.190Z,3.90
2023-01-09T04:34:42.098Z,3.85
2023-01-09T04:40:12.307Z,3.83
2023-01-09T04:45:34.323Z,3.85
2023-01-09T04:50:56.432Z,3.87
2023-01-09T04:56:18.160Z,3.85
2023-01-09T05:01:45.522Z,3.87
2023-01-09T05:07:07.219Z,3.97
2023-01-09T05:12:29.283Z,4.07
2023-01-09T05:17:51.058Z,4.17
2023-01-09T05:23:13.226Z,4.22
2023-01-09T05:28:35.153Z,4.19
2023-01-09T05:33:59.387Z,4.16
2023-01-09T05:39:21.429Z,4.15
2023-01-09T05:44:43.348Z,4.16
2023-01-09T05:50:06.015Z,4.17
2023-01-09T05:55:30.945Z,4.22
2023-01-09T06:00:53.788Z,4.35
2023-01-09T06:06:15.832Z,4.48
2023-01-09T06:11:38.669Z,4.64
2023-01-09T06:17:00.316Z,4.77
2023-01-09T06:22:22.377Z,4.90
2023-01-09T06:27:47.273Z,5.02
2023-01-09T06:33:09.338Z,5.11
2023-01-09T06:38:31.469Z,5.17
2023-01-09T06:43:53.353Z,5.29
2023-01-09T06:49:15.270Z,5.46
2023-01-09T06:54:37.172Z,5.67
2023-01-09T06:59:59.028Z,5.85
2023-01-09T07:05:21.021Z,6.03
2023-01-09T07:10:43.685Z,6.17
2023-01-09T07:16:06.163Z,6.28
2023-01-09T07:21:28.529Z,6.34
2023-01-09T07:26:50.211Z,6.38
2023-01-09T07:32:12.219Z,6.41
2023-01-09T07:37:34.501Z,6.42
2023-01-09T07:42:55.951Z,6.43
2023-01-09T07:48:23.176Z,6.48
2023-01-09T07:53:44.717Z,6.48
2023-01-09T07:59:06.676Z,6.50
2023-01-09T08:04:28.770Z,6.50
2023-01-09T08:09:50.794Z,6.54
2023-01-09T08:15:13.427Z,6.60
2023-01-09T08:20:35.583Z,6.64
2023-01-09T08:25:57.322Z,6.65
2023-01-09T08:31:19.371Z,6.67
2023-01-09T08:36:43.269Z,6.72
2023-01-09T08:42:24.468Z,6.80
2023-01-09T08:47:46.676Z,6.88
2023-01-09T08:53:08.376Z,6.98
2023-01-09T08:58:30.618Z,7.05
2023-01-09T09:03:52.660Z,7.13
2023-01-09T09:09:15.001Z,7.22
2023-01-09T09:14:56.307Z,7.33
2023-01-09T09:20:17.920Z,7.43
2023-01-09T09:25:39.854Z,7.47
2023-01-09T09:31:05.648Z,7.52
2023-01-09T09:36:29.230Z,7.61
2023-01-09T09:42:36.341Z,7.66
2023-01-09T09:48:07.180Z,7.70
2023-01-09T09:53:36.519Z,7.75
2023-01-09T09:59:19.641Z,7.86
2023-01-09T10:04:49.284Z,7.96
2023-01-09T10:10:17.113Z,8.06
2023-01-09T10:15:46.549Z,8.22
2023-01-09T10:21:49.273Z,8.41
2023-01-09T10:27:22.741Z,8.54
2023-01-09T10:33:02.759Z,8.61
2023-01-09T10:38:32.919Z,8.71
2023-01-09T10:44:04.628Z,8.82
2023-01-09T10:49:27.085Z,8.83
2023-01-09T10:55:03.367Z,8.86
2023-01-09T11:00:25.491Z,8.89
2023-01-09T11:05:55.228Z,8.95
2023-01-09T11:11:45.457Z,9.01
2023-01-09T11:17:19.228Z,9.03
2023-01-09T11:22:53.021Z,9.07
2023-01-09T11:28:14.533Z,9.12
2023-01-09T11:33:41.403Z,9.10
2023-01-09T11:39:06.035Z,9.06
2023-01-09T11:44:28.989Z,9.06
2023-01-09T11:49:51.412Z,8.99
2023-01-09T11:55:16.341Z,8.94
2023-01-09T12:00:47.401Z,9.06
2023-01-09T12:06:39.840Z,9.09
2023-01-09T12:12:18.352Z,9.11
2023-01-09T12:18:04.340Z,9.00
2023-01-09T12:23:49.348Z,8.97
2023-01-09T12:29:33.961Z,9.09
2023-01-09T12:35:01.089Z,9.19
2023-01-09T12:40:36.391Z,9.21
2023-01-09T12:46:07.515Z,9.20
2023-01-09T12:51:44.523Z,9.16
2023-01-09T12:57:10.391Z,9.16
2023-01-09T13:03:11.342Z,9.20
2023-01-09T13:08:42.891Z,9.12
2023-01-09T13:14:25.898Z,9.10
2023-01-09T13:19:48.330Z,9.09
2023-01-09T13:25:30.152Z,9.07
2023-01-09T13:30:58.774Z,9.02
2023-01-09T13:36:33.310Z,8.98
2023-01-09T13:42:34.232Z,9.03
2023-01-09T13:48:11.302Z,9.05
2023-01-09T13:53:35.282Z,9.05
2023-01-09T13:58:58.476Z,9.09
2023-01-09T14:04:21.424Z,9.15
2023-01-09T14:09:49.178Z,9.14
2023-01-09T14:15:26.808Z,9.18
2023-01-09T14:26:43.124Z,9.17
2023-01-09T14:32:23.527Z,9.15
2023-01-09T14:37:52.928Z,9.10
2023-01-09T14:43:24.130Z,9.04
2023-01-09T14:49:27.702Z,8.97
2023-01-09T14:54:50.668Z,8.93
2023-01-09T15:00:12.665Z,8.92
2023-01-09T15:05:34.641Z,8.95
2023-01-09T15:10:57.337Z,8.96
2023-01-09T15:16:21.027Z,8.97
2023-01-09T15:21:56.899Z,8.98
2023-01-09T15:27:26.935Z,9.00
2023-01-09T15:32:50.541Z,8.98
2023-01-09T15:38:16.014Z,8.93
2023-01-09T15:43:41.704Z,8.91
2023-01-09T15:49:04.224Z,8.91
2023-01-09T15:54:32.914Z,8.89
2023-01-09T15:59:57.720Z,8.91
2023-01-09T16:05:20.405Z,8.91
2023-01-09T16:10:44.367Z,8.93
2023-01-09T16:16:06.810Z,8.94
2023-01-09T16:21:35.127Z,8.94
2023-01-09T16:27:18.841Z,8.93
2023-01-09T16:32:47.907Z,8.97
2023-01-09T16:38:14.596Z,8.96
2023-01-09T16:43:36.264Z,8.95
2023-01-09T16:48:59.634Z,8.92
2023-01-09T16:54:21.793Z,8.93
2023-01-09T16:59:44.020Z,8.93
2023-01-09T17:05:07.157Z,8.96
2023-01-09T17:10:28.949Z,8.98
2023-01-09T17:15:52.890Z,8.98
2023-01-09T17:21:20.604Z,9.00
2023-01-09T17:27:02.911Z,8.98
2023-01-09T17:32:26.064Z,8.97
2023-01-09T17:37:48.285Z,8.95
2023-01-09T17:43:09.963Z,8.92
2023-01-09T17:48:31.809Z,8.88
2023-01-09T17:53:54.028Z,8.83
2023-01-09T17:59:16.354Z,8.83
2023-01-09T18:04:39.320Z,8.79
2023-01-09T18:10:01.938Z,8.77
2023-01-09T18:15:25.159Z,8.75
2023-01-09T18:20:50.389Z,8.72
2023-01-09T18:26:20.403Z,8.64
2023-01-09T18:31:42.663Z,8.67
2023-01-09T18:37:04.576Z,8.69
2023-01-09T18:42:26.479Z,8.71
2023-01-09T18:47:48.602Z,8.67
2023-01-09T18:53:11.010Z,8.49
2023-01-09T18:58:35.644Z,8.42
2023-01-09T19:03:59.636Z,8.51
2023-01-09T19:09:21.402Z,8.55
2023-01-09T19:14:45.148Z,8.54
2023-01-09T19:20:08.909Z,8.54
2023-01-09T19:25:30.792Z,8.54
2023-01-09T19:30:56.992Z,8.55
2023-01-09T19:36:18.877Z,8.53
2023-01-09T19:41:40.703Z,8.54
2023-01-09T19:47:02.875Z,8.55
2023-01-09T19:52:24.871Z,8.54
2023-01-09T19:57:46.868Z,8.52
2023-01-09T20:03:08.623Z,8.48
2023-01-09T20:08:30.963Z,8.46
2023-01-09T20:13:55.599Z,8.47
2023-01-09T20:19:17.431Z,8.48
2023-01-09T20:24:39.555Z,8.49
2023-01-09T20:30:01.795Z,8.47
2023-01-09T20:35:23.515Z,8.44
2023-01-09T20:40:45.638Z,8.42
2023-01-09T20:46:07.713Z,8.38
2023-01-09T20:51:29.704Z,8.37
2023-01-09T20:56:51.935Z,8.34
2023-01-09T21:02:14.969Z,8.32
2023-01-09T21:07:37.098Z,8.29
2023-01-09T21:12:59.023Z,8.27
2023-01-09T21:18:23.661Z,8.24
2023-01-09T21:23:52.224Z,8.22
2023-01-09T21:29:14.250Z,8.19
2023-01-09T21:34:36.587Z,8.17
2023-01-09T21:39:58.503Z,8.16
2023-01-09T21:45:39.023Z,8.14
2023-01-09T21:51:02.936Z,8.10
2023-01-09T21:56:28.077Z,8.09
2023-01-09T22:01:50.719Z,8.09
2023-01-09T22:07:12.642Z,8.08
2023-01-09T22:12:34.567Z,8.06
2023-01-09T22:17:56.377Z,8.05
2023-01-09T22:23:18.424Z,8.06
2023-01-09T22:28:41.072Z,8.03
2023-01-09T22:34:03.066Z,7.98
2023-01-09T22:39:25.638Z,7.92
2023-01-09T22:44:47.540Z,7.90
2023-01-09T22:50:10.187Z,7.89
2023-01-09T22:55:32.118Z,7.85
2023-01-09T23:00:54.240Z,7.84
2023-01-09T23:06:18.675Z,7.79
2023-01-09T23:11:59.273Z,7.76
2023-01-09T23:17:21.502Z,7.72
2023-01-09T23:22:43.337Z,7.66
2023-01-09T23:28:05.362Z,7.61
2023-01-09T23:33:27.093Z,7.53
2023-01-09T23:38:52.418Z,7.44
2023-01-09T23:44:16.591Z,7.32
2023-01-09T23:49:39.400Z,7.24
2023-01-09T23:55:01.343Z,7.20
